createdAt,value
2022-08-09T00:01:20.965Z,1024.47
2022-08-09T00:04:06.004Z,1024.47
2022-08-09T00:06:15.705Z,1024.43
2022-08-09T00:07:20.825Z,1024.42
2022-08-09T00:09:21.005Z,1024.40
2022-08-09T00:11:24.970Z,1024.38
2022-08-09T00:13:20.834Z,1024.38
2022-08-09T00:15:26.416Z,1024.38
2022-08-09T00:18:10.950Z,1024.38
2022-08-09T00:19:20.860Z,1024.38
2022-08-09T00:21:20.845Z,1024.41
2022-08-09T00:23:54.643Z,1024.38
2022-08-09T00:25:23.339Z,1024.40
2022-08-09T00:27:20.855Z,1024.40
2022-08-09T00:29:39.613Z,1024.40
2022-08-09T00:31:58.209Z,1024.44
2022-08-09T00:33:20.858Z,1024.42
2022-08-09T00:35:20.877Z,1024.43
2022-08-09T00:37:20.924Z,1024.43
2022-08-09T00:40:13.403Z,1024.43
2022-08-09T00:44:13.946Z,1024.48
2022-08-09T00:44:17.148Z,1024.45
2022-08-09T00:45:20.918Z,1024.50
2022-08-09T00:47:20.864Z,1024.50
2022-08-09T00:49:20.869Z,1024.54
2022-08-09T00:51:20.881Z,1024.54
2022-08-09T00:53:51.826Z,1024.55
2022-08-09T00:56:03.287Z,1024.58
2022-08-09T00:57:50.897Z,1024.60
2022-08-09T00:59:52.450Z,1024.60
2022-08-09T01:01:50.967Z,1024.61
2022-08-09T01:03:50.965Z,1024.62
2022-08-09T01:05:53.684Z,1024.60
2022-08-09T01:07:59.682Z,1024.60
2022-08-09T01:09:50.883Z,1024.60
2022-08-09T01:11:55.401Z,1024.53
2022-08-09T01:13:59.355Z,1024.52
2022-08-09T01:15:51.612Z,1024.57
2022-08-09T01:17:51.993Z,1024.64
2022-08-09T01:20:01.783Z,1024.64
2022-08-09T01:21:53.559Z,1024.61
2022-08-09T01:24:03.632Z,1024.56
2022-08-09T01:25:51.233Z,1024.62
2022-08-09T01:27:51.069Z,1024.62
2022-08-09T01:29:55.964Z,1024.57
2022-08-09T01:32:30.768Z,1024.57
2022-08-09T01:33:50.992Z,1024.60
2022-08-09T01:35:51.793Z,1024.59
2022-08-09T01:38:07.730Z,1024.59
2022-08-09T01:39:50.966Z,1024.56
2022-08-09T01:41:55.609Z,1024.58
2022-08-09T01:45:50.973Z,1024.56
2022-08-09T01:49:54.646Z,1024.56
2022-08-09T01:51:53.521Z,1024.56
2022-08-09T01:55:59.189Z,1024.53
2022-08-09T01:57:59.230Z,1024.52
2022-08-09T02:00:00.190Z,1024.51
2022-08-09T02:02:01.214Z,1024.53
2022-08-09T02:03:59.227Z,1024.49
2022-08-09T02:06:06.541Z,1024.49
2022-08-09T02:08:40.140Z,1024.52
2022-08-09T02:10:01.479Z,1024.52
2022-08-09T02:11:59.223Z,1024.53
2022-08-09T02:14:07.704Z,1024.56
2022-08-09T02:15:59.307Z,1024.56
2022-08-09T02:18:09.910Z,1024.58
2022-08-09T02:19:59.224Z,1024.55
2022-08-09T02:21:59.232Z,1024.57
2022-08-09T02:23:59.241Z,1024.61
2022-08-09T02:25:59.256Z,1024.61
2022-08-09T02:28:03.614Z,1024.60
2022-08-09T02:29:59.245Z,1024.60
2022-08-09T02:31:59.234Z,1024.62
2022-08-09T02:34:13.387Z,1024.62
2022-08-09T02:36:03.001Z,1024.65
2022-08-09T02:37:59.250Z,1024.61
2022-08-09T02:40:01.837Z,1024.63
2022-08-09T02:41:59.276Z,1024.63
2022-08-09T02:43:59.239Z,1024.63
2022-08-09T02:45:59.247Z,1024.63
2022-08-09T02:47:59.773Z,1024.59
2022-08-09T02:50:01.456Z,1024.61
2022-08-09T02:51:59.253Z,1024.59
2022-08-09T02:54:00.829Z,1024.59
2022-08-09T02:55:59.246Z,1024.53
2022-08-09T02:58:32.028Z,1024.53
2022-08-09T03:00:21.166Z,1024.51
2022-08-09T03:02:06.378Z,1024.51
2022-08-09T03:04:18.467Z,1024.52
2022-08-09T03:05:59.266Z,1024.46
2022-08-09T03:07:59.286Z,1024.44
2022-08-09T03:09:59.339Z,1024.44
2022-08-09T03:12:05.283Z,1024.44
2022-08-09T03:14:01.660Z,1024.44
2022-08-09T03:16:06.634Z,1024.50
2022-08-09T03:17:59.284Z,1024.51
2022-08-09T03:20:02.814Z,1024.48
2022-08-09T03:21:59.258Z,1024.48
2022-08-09T03:24:04.275Z,1024.45
2022-08-09T03:26:31.954Z,1024.46
2022-08-09T03:28:29.295Z,1024.46
2022-08-09T03:30:34.082Z,1024.46
2022-08-09T03:32:29.307Z,1024.46
2022-08-09T03:34:29.310Z,1024.46
2022-08-09T03:36:29.302Z,1024.45
2022-08-09T03:38:30.505Z,1024.45
2022-08-09T03:40:31.100Z,1024.48
2022-08-09T03:42:30.761Z,1024.51
2022-08-09T03:44:32.066Z,1024.51
2022-08-09T03:46:30.347Z,1024.54
2022-08-09T03:48:31.062Z,1024.55
2022-08-09T03:50:31.957Z,1024.55
2022-08-09T03:52:29.349Z,1024.60
2022-08-09T03:54:31.145Z,1024.60
2022-08-09T03:56:29.352Z,1024.63
2022-08-09T03:58:29.290Z,1024.64
2022-08-09T04:00:29.362Z,1024.64
2022-08-09T04:02:29.494Z,1024.64
2022-08-09T04:04:32.516Z,1024.70
2022-08-09T04:06:29.298Z,1024.76
2022-08-09T04:08:29.723Z,1024.77
2022-08-09T04:10:30.365Z,1024.80
2022-08-09T04:12:30.440Z,1024.80
2022-08-09T04:14:53.085Z,1024.80
2022-08-09T04:16:29.350Z,1024.79
2022-08-09T04:18:29.319Z,1024.79
2022-08-09T04:20:29.307Z,1024.84
2022-08-09T04:22:29.515Z,1024.84
2022-08-09T04:24:29.432Z,1024.85
2022-08-09T04:26:37.996Z,1024.86
2022-08-09T04:28:33.846Z,1024.86
2022-08-09T04:30:29.326Z,1024.86
2022-08-09T04:32:34.059Z,1024.86
2022-08-09T04:34:30.615Z,1024.86
2022-08-09T04:36:29.424Z,1024.93
2022-08-09T04:38:29.353Z,1025.00
2022-08-09T04:40:36.590Z,1025.00
2022-08-09T04:42:29.649Z,1025.00
2022-08-09T04:44:29.358Z,1024.99
2022-08-09T04:46:37.641Z,1025.03
2022-08-09T04:48:33.463Z,1025.04
2022-08-09T04:50:34.852Z,1025.04
2022-08-09T04:52:29.414Z,1025.07
2022-08-09T04:54:29.351Z,1025.08
2022-08-09T04:56:29.349Z,1025.13
2022-08-09T04:58:31.948Z,1025.13
2022-08-09T05:00:31.915Z,1025.15
2022-08-09T05:02:29.406Z,1025.17
2022-08-09T05:04:31.121Z,1025.17
2022-08-09T05:06:32.630Z,1025.19
2022-08-09T05:08:29.362Z,1025.19
2022-08-09T05:10:29.349Z,1025.20
2022-08-09T05:12:29.347Z,1025.20
2022-08-09T05:14:29.372Z,1025.25
2022-08-09T05:16:31.633Z,1025.27
2022-08-09T05:18:39.215Z,1025.27
2022-08-09T05:20:29.545Z,1025.32
2022-08-09T05:23:55.492Z,1025.36
2022-08-09T05:25:01.019Z,1025.36
2022-08-09T05:26:59.344Z,1025.38
2022-08-09T05:28:59.372Z,1025.38
2022-08-09T05:30:59.438Z,1025.39
2022-08-09T05:32:59.360Z,1025.44
2022-08-09T05:34:59.394Z,1025.44
2022-08-09T05:37:01.798Z,1025.44
2022-08-09T05:38:59.450Z,1025.46
2022-08-09T05:40:59.362Z,1025.51
2022-08-09T05:42:59.363Z,1025.53
2022-08-09T05:44:59.401Z,1025.53
2022-08-09T05:46:59.389Z,1025.53
2022-08-09T05:48:59.471Z,1025.54
2022-08-09T05:51:41.729Z,1025.51
2022-08-09T05:52:59.374Z,1025.51
2022-08-09T05:55:06.767Z,1025.54
2022-08-09T05:56:59.398Z,1025.54
2022-08-09T05:58:59.380Z,1025.51
2022-08-09T06:00:59.438Z,1025.56
2022-08-09T06:02:59.461Z,1025.56
2022-08-09T06:04:59.381Z,1025.56
2022-08-09T06:06:59.395Z,1025.58
2022-08-09T06:08:59.386Z,1025.58
2022-08-09T06:10:59.398Z,1025.58
2022-08-09T06:13:11.737Z,1025.55
2022-08-09T06:15:01.565Z,1025.55
2022-08-09T06:16:59.400Z,1025.59
2022-08-09T06:18:59.396Z,1025.58
2022-08-09T06:20:59.386Z,1025.63
2022-08-09T06:22:59.403Z,1025.68
2022-08-09T06:24:59.424Z,1025.68
2022-08-09T06:26:59.413Z,1025.68
2022-08-09T06:29:05.093Z,1025.80
2022-08-09T06:30:59.399Z,1025.80
2022-08-09T06:33:29.923Z,1025.80
2022-08-09T06:34:59.401Z,1025.80
2022-08-09T06:37:00.061Z,1025.81
2022-08-09T06:38:59.424Z,1025.84
2022-08-09T06:40:59.511Z,1025.90
2022-08-09T06:42:59.419Z,1025.90
2022-08-09T06:45:00.306Z,1025.85
2022-08-09T06:46:59.418Z,1025.90
2022-08-09T06:49:00.357Z,1025.92
2022-08-09T06:50:59.472Z,1025.92
2022-08-09T06:52:59.425Z,1025.92
2022-08-09T06:54:59.418Z,1025.99
2022-08-09T06:56:59.426Z,1026.04
2022-08-09T07:00:55.236Z,1026.05
2022-08-09T07:00:59.871Z,1026.05
2022-08-09T07:02:59.429Z,1026.07
2022-08-09T07:04:59.834Z,1026.08
2022-08-09T07:07:00.618Z,1026.09
2022-08-09T07:08:59.462Z,1026.08
2022-08-09T07:10:59.446Z,1026.08
2022-08-09T07:12:59.451Z,1026.07
2022-08-09T07:14:59.422Z,1026.07
2022-08-09T07:16:59.433Z,1026.07
2022-08-09T07:18:59.447Z,1026.05
2022-08-09T07:21:30.862Z,1026.04
2022-08-09T07:23:29.472Z,1026.03
2022-08-09T07:25:29.446Z,1026.03
2022-08-09T07:27:34.509Z,1026.07
2022-08-09T07:29:37.699Z,1026.02
2022-08-09T07:31:29.461Z,1026.05
2022-08-09T07:33:30.913Z,1026.05
2022-08-09T07:35:29.449Z,1026.06
2022-08-09T07:37:29.570Z,1026.07
2022-08-09T07:39:41.577Z,1026.12
2022-08-09T07:41:33.157Z,1026.12
2022-08-09T07:43:29.452Z,1026.12
2022-08-09T07:45:39.368Z,1026.08
2022-08-09T07:47:29.542Z,1026.13
2022-08-09T07:49:29.455Z,1026.16
2022-08-09T07:52:04.895Z,1026.16
2022-08-09T07:54:01.639Z,1026.16
2022-08-09T07:55:29.462Z,1026.16
2022-08-09T07:57:36.247Z,1026.21
2022-08-09T07:59:34.390Z,1026.19
2022-08-09T08:01:34.338Z,1026.19
2022-08-09T08:03:29.494Z,1026.24
2022-08-09T08:05:29.494Z,1026.23
2022-08-09T08:08:43.258Z,1026.24
2022-08-09T08:09:38.588Z,1026.25
2022-08-09T08:12:10.917Z,1026.25
2022-08-09T08:13:29.489Z,1026.24
2022-08-09T08:15:29.514Z,1026.26
2022-08-09T08:17:52.218Z,1026.27
2022-08-09T08:19:31.352Z,1026.27
2022-08-09T08:21:29.507Z,1026.27
2022-08-09T08:23:29.480Z,1026.30
2022-08-09T08:25:43.788Z,1026.30
2022-08-09T08:27:29.499Z,1026.29
2022-08-09T08:29:39.147Z,1026.31
2022-08-09T08:32:02.544Z,1026.31
2022-08-09T08:33:49.512Z,1026.25
2022-08-09T08:35:52.882Z,1026.25
2022-08-09T08:37:41.051Z,1026.25
2022-08-09T08:39:29.591Z,1026.25
2022-08-09T08:41:41.994Z,1026.27
2022-08-09T08:43:29.592Z,1026.20
2022-08-09T08:45:36.845Z,1026.26
2022-08-09T08:47:29.527Z,1026.27
2022-08-09T08:49:33.435Z,1026.27
2022-08-09T08:51:38.773Z,1026.27
2022-08-09T08:53:32.126Z,1026.34
2022-08-09T08:57:29.577Z,1026.33
2022-08-09T08:59:47.048Z,1026.33
2022-08-09T09:03:33.036Z,1026.33
2022-08-09T09:06:00.417Z,1026.37
2022-08-09T09:07:54.719Z,1026.37
2022-08-09T09:10:02.444Z,1026.37
2022-08-09T09:11:54.750Z,1026.37
2022-08-09T09:13:57.969Z,1026.39
2022-08-09T09:15:54.739Z,1026.39
2022-08-09T09:17:54.745Z,1026.39
2022-08-09T09:19:54.735Z,1026.24
2022-08-09T09:21:54.749Z,1026.28
2022-08-09T09:23:58.014Z,1026.26
2022-08-09T09:26:02.256Z,1026.23
2022-08-09T09:28:04.185Z,1026.23
2022-08-09T09:30:10.486Z,1026.23
2022-08-09T09:32:04.047Z,1026.16
2022-08-09T09:33:56.959Z,1026.23
2022-08-09T09:36:02.130Z,1026.23
2022-08-09T09:37:54.775Z,1026.19
2022-08-09T09:39:57.741Z,1026.26
2022-08-09T09:41:54.749Z,1026.26
2022-08-09T09:44:11.419Z,1026.26
2022-08-09T09:46:39.155Z,1026.26
2022-08-09T09:47:58.663Z,1026.29
2022-08-09T09:50:07.807Z,1026.28
2022-08-09T09:51:54.783Z,1026.32
2022-08-09T09:54:01.046Z,1026.31
2022-08-09T09:55:57.688Z,1026.31
2022-08-09T09:58:03.629Z,1026.31
2022-08-09T09:59:54.757Z,1026.28
2022-08-09T10:01:54.772Z,1026.24
2022-08-09T10:03:58.220Z,1026.24
2022-08-09T10:06:03.792Z,1026.23
2022-08-09T10:08:10.716Z,1026.20
2022-08-09T10:09:55.327Z,1026.16
2022-08-09T10:12:12.377Z,1026.12
2022-08-09T10:13:54.777Z,1026.12
2022-08-09T10:16:54.697Z,1026.13
2022-08-09T10:17:56.455Z,1026.10
2022-08-09T10:19:57.210Z,1026.13
2022-08-09T10:21:54.785Z,1026.13
2022-08-09T10:23:54.795Z,1026.13
2022-08-09T10:26:06.267Z,1026.13
2022-08-09T10:27:57.659Z,1026.08
2022-08-09T10:30:22.115Z,1026.07
2022-08-09T10:34:08.544Z,1026.09
2022-08-09T10:35:54.879Z,1026.04
2022-08-09T10:37:54.824Z,1026.04
2022-08-09T10:39:54.901Z,1025.95
2022-08-09T10:41:54.805Z,1025.95
2022-08-09T10:43:59.540Z,1025.97
2022-08-09T10:45:59.815Z,1025.93
2022-08-09T10:48:16.614Z,1025.95
2022-08-09T10:49:54.813Z,1025.95
2022-08-09T10:51:54.896Z,1025.95
2022-08-09T10:53:55.090Z,1025.99
2022-08-09T10:55:58.418Z,1025.98
2022-08-09T10:57:56.100Z,1025.93
2022-08-09T10:59:57.850Z,1025.97
2022-08-09T11:03:13.560Z,1025.97
2022-08-09T11:03:59.878Z,1025.93
2022-08-09T11:06:00.250Z,1025.93
2022-08-09T11:07:57.564Z,1025.91
2022-08-09T11:09:59.637Z,1025.91
2022-08-09T11:12:26.400Z,1025.83
2022-08-09T11:14:28.269Z,1025.83
2022-08-09T11:16:34.929Z,1025.84
2022-08-09T11:18:24.927Z,1025.84
2022-08-09T11:20:24.849Z,1025.84
2022-08-09T11:22:25.759Z,1025.77
2022-08-09T11:24:24.872Z,1025.77
2022-08-09T11:26:24.862Z,1025.82
2022-08-09T11:28:30.888Z,1025.81
2022-08-09T11:30:32.600Z,1025.82
2022-08-09T11:32:24.906Z,1025.84
2022-08-09T11:34:24.941Z,1025.84
2022-08-09T11:36:30.498Z,1025.86
2022-08-09T11:38:30.998Z,1025.80
2022-08-09T11:40:24.869Z,1025.79
2022-08-09T11:42:24.857Z,1025.79
2022-08-09T11:44:24.936Z,1025.76
2022-08-09T11:46:33.115Z,1025.72
2022-08-09T11:48:26.509Z,1025.72
2022-08-09T11:50:53.687Z,1025.78
2022-08-09T11:52:56.897Z,1025.78
2022-08-09T11:54:33.103Z,1025.82
2022-08-09T11:56:42.852Z,1025.76
2022-08-09T11:58:30.130Z,1025.76
2022-08-09T12:00:24.919Z,1025.72
2022-08-09T12:02:36.907Z,1025.72
2022-08-09T12:04:32.171Z,1025.68
2022-08-09T12:06:26.702Z,1025.61
2022-08-09T12:08:24.974Z,1025.59
2022-08-09T12:10:39.321Z,1025.59
2022-08-09T12:12:28.800Z,1025.56
2022-08-09T12:14:36.834Z,1025.61
2022-08-09T12:16:37.427Z,1025.56
2022-08-09T12:18:29.754Z,1025.56
2022-08-09T12:20:24.931Z,1025.56
2022-08-09T12:22:24.993Z,1025.49
2022-08-09T12:24:25.711Z,1025.52
2022-08-09T12:26:25.991Z,1025.50
2022-08-09T12:28:59.089Z,1025.52
2022-08-09T12:30:36.675Z,1025.52
2022-08-09T12:32:25.029Z,1025.44
2022-08-09T12:34:24.903Z,1025.44
2022-08-09T12:36:31.511Z,1025.47
2022-08-09T12:38:29.580Z,1025.47
2022-08-09T12:40:25.066Z,1025.47
2022-08-09T12:42:30.044Z,1025.45
2022-08-09T12:44:24.923Z,1025.45
2022-08-09T12:46:24.958Z,1025.45
2022-08-09T12:48:31.148Z,1025.45
2022-08-09T12:50:25.373Z,1025.41
2022-08-09T12:52:42.797Z,1025.48
2022-08-09T12:54:24.937Z,1025.43
2022-08-09T12:56:39.940Z,1025.41
2022-08-09T12:58:27.699Z,1025.41
2022-08-09T13:00:25.663Z,1025.33
2022-08-09T13:02:24.957Z,1025.35
2022-08-09T13:04:37.523Z,1025.31
2022-08-09T13:06:24.961Z,1025.31
2022-08-09T13:08:39.850Z,1025.33
2022-08-09T13:10:26.994Z,1025.32
2022-08-09T13:12:25.036Z,1025.30
2022-08-09T13:14:41.988Z,1025.30
2022-08-09T13:16:24.965Z,1025.30
2022-08-09T13:18:54.954Z,1025.31
2022-08-09T13:21:20.637Z,1025.31
2022-08-09T13:23:05.764Z,1025.28
2022-08-09T13:24:55.232Z,1025.29
2022-08-09T13:26:54.969Z,1025.29
2022-08-09T13:28:54.983Z,1025.25
2022-08-09T13:32:13.346Z,1025.25
2022-08-09T13:32:54.980Z,1025.20
2022-08-09T13:34:54.980Z,1025.11
2022-08-09T13:36:55.076Z,1025.11
2022-08-09T13:38:59.108Z,1025.07
2022-08-09T13:41:54.257Z,1025.07
2022-08-09T13:42:55.037Z,1025.03
2022-08-09T13:44:54.978Z,1025.03
2022-08-09T13:47:28.963Z,1025.07
2022-08-09T13:48:55.002Z,1025.03
2022-08-09T13:50:54.977Z,1024.93
2022-08-09T13:52:55.013Z,1024.94
2022-08-09T13:54:59.817Z,1024.94
2022-08-09T13:56:54.985Z,1024.97
2022-08-09T13:58:55.017Z,1024.93
2022-08-09T14:00:54.985Z,1024.93
2022-08-09T14:03:57.784Z,1024.92
2022-08-09T14:04:59.937Z,1024.92
2022-08-09T14:06:55.031Z,1024.92
2022-08-09T14:08:55.025Z,1024.95
2022-08-09T14:10:55.005Z,1024.98
2022-08-09T14:12:55.013Z,1024.98
2022-08-09T14:14:56.580Z,1025.05
2022-08-09T14:16:55.010Z,1025.04
2022-08-09T14:18:55.013Z,1025.00
2022-08-09T14:20:55.048Z,1024.97
2022-08-09T14:22:55.018Z,1024.97
2022-08-09T14:24:55.019Z,1024.93
2022-08-09T14:26:55.043Z,1024.93
2022-08-09T14:28:55.035Z,1024.94
2022-08-09T14:30:55.029Z,1024.91
2022-08-09T14:32:55.090Z,1024.91
2022-08-09T14:34:55.880Z,1024.90
2022-08-09T14:36:55.036Z,1024.95
2022-08-09T14:38:55.090Z,1024.95
2022-08-09T14:41:01.113Z,1024.95
2022-08-09T14:42:55.037Z,1024.95
2022-08-09T14:44:59.801Z,1025.01
2022-08-09T14:47:14.753Z,1024.87
2022-08-09T14:48:55.070Z,1025.04
2022-08-09T14:50:55.038Z,1025.04
2022-08-09T14:52:55.056Z,1024.95
2022-08-09T14:54:55.041Z,1024.95
2022-08-09T14:56:58.945Z,1024.88
2022-08-09T14:58:56.087Z,1024.79
2022-08-09T15:00:57.775Z,1024.79
2022-08-09T15:02:55.057Z,1024.82
2022-08-09T15:04:55.067Z,1024.83
2022-08-09T15:06:55.076Z,1024.85
2022-08-09T15:08:56.623Z,1024.85
2022-08-09T15:11:00.443Z,1024.88
2022-08-09T15:12:55.065Z,1024.89
2022-08-09T15:14:55.060Z,1024.86
2022-08-09T15:16:55.059Z,1024.82
2022-08-09T15:18:55.079Z,1024.82
2022-08-09T15:21:58.156Z,1024.78
2022-08-09T15:24:03.765Z,1024.78
2022-08-09T15:25:39.376Z,1024.76
2022-08-09T15:27:25.058Z,1024.76
2022-08-09T15:30:48.245Z,1024.76
2022-08-09T15:31:28.471Z,1024.75
2022-08-09T15:33:25.153Z,1024.75
2022-08-09T15:35:44.084Z,1024.74
2022-08-09T15:37:37.476Z,1024.77
2022-08-09T15:39:25.162Z,1024.71
2022-08-09T15:41:32.140Z,1024.71
2022-08-09T15:43:36.742Z,1024.75
2022-08-09T15:45:29.545Z,1024.73
2022-08-09T15:47:32.810Z,1024.71
2022-08-09T15:49:25.166Z,1024.71
2022-08-09T15:52:02.301Z,1024.71
2022-08-09T15:54:05.275Z,1024.71
2022-08-09T15:55:25.179Z,1024.70
2022-08-09T15:57:34.080Z,1024.72
2022-08-09T15:59:25.181Z,1024.67
2022-08-09T16:01:25.313Z,1024.67
2022-08-09T16:03:29.505Z,1024.67
2022-08-09T16:05:25.286Z,1024.68
2022-08-09T16:07:25.758Z,1024.68
2022-08-09T16:09:32.695Z,1024.68
2022-08-09T16:11:25.259Z,1024.67
2022-08-09T16:13:20.675Z,1024.67
2022-08-09T16:16:09.846Z,1024.67
2022-08-09T16:17:37.791Z,1024.65
2022-08-09T16:19:48.988Z,1024.65
2022-08-09T16:21:37.821Z,1024.65
2022-08-09T16:23:37.791Z,1024.64
2022-08-09T16:25:40.302Z,1024.66
2022-08-09T16:27:37.805Z,1024.64
2022-08-09T16:29:50.693Z,1024.64
2022-08-09T16:32:11.066Z,1024.64
2022-08-09T16:33:38.864Z,1024.64
2022-08-09T16:35:53.211Z,1024.67
2022-08-09T16:37:55.091Z,1024.65
2022-08-09T16:39:47.883Z,1024.65
2022-08-09T16:42:02.202Z,1024.65
2022-08-09T16:43:40.568Z,1024.65
2022-08-09T16:45:44.231Z,1024.59
2022-08-09T16:48:43.399Z,1024.59
2022-08-09T16:50:29.988Z,1024.54
2022-08-09T16:51:37.817Z,1024.57
2022-08-09T16:53:47.217Z,1024.60
2022-08-09T16:55:58.732Z,1024.57
2022-08-09T16:58:08.888Z,1024.57
2022-08-09T16:59:37.821Z,1024.60
2022-08-09T17:01:37.847Z,1024.62
2022-08-09T17:03:37.828Z,1024.63
2022-08-09T17:06:07.112Z,1024.65
2022-08-09T17:08:43.017Z,1024.65
2022-08-09T17:09:44.000Z,1024.60
2022-08-09T17:11:41.810Z,1024.61
2022-08-09T17:13:37.843Z,1024.66
2022-08-09T17:16:00.257Z,1024.66
2022-08-09T17:17:50.400Z,1024.68
2022-08-09T17:19:47.254Z,1024.64
2022-08-09T17:21:37.887Z,1024.67
2022-08-09T17:24:27.833Z,1024.67
2022-08-09T17:25:37.843Z,1024.67
2022-08-09T17:27:38.402Z,1024.68
2022-08-09T17:29:41.121Z,1024.71
2022-08-09T17:31:38.908Z,1024.70
2022-08-09T17:33:38.064Z,1024.74
2022-08-09T17:35:41.045Z,1024.74
2022-08-09T17:38:02.400Z,1024.69
2022-08-09T17:39:52.520Z,1024.77
2022-08-09T17:41:38.986Z,1024.76
2022-08-09T17:43:38.266Z,1024.76
2022-08-09T17:46:02.137Z,1024.74
2022-08-09T17:47:49.298Z,1024.70
2022-08-09T17:49:50.570Z,1024.69
2022-08-09T17:51:37.924Z,1024.71
2022-08-09T17:53:43.216Z,1024.71
2022-08-09T17:55:49.512Z,1024.78
2022-08-09T17:58:05.719Z,1024.79
2022-08-09T17:59:38.323Z,1024.79
2022-08-09T18:01:58.034Z,1024.81
2022-08-09T18:03:37.964Z,1024.81
2022-08-09T18:05:43.464Z,1024.81
2022-08-09T18:07:37.884Z,1024.77
2022-08-09T18:09:41.494Z,1024.73
2022-08-09T18:12:05.834Z,1024.73
2022-08-09T18:13:39.784Z,1024.76
2022-08-09T18:16:04.958Z,1024.82
2022-08-09T18:18:02.164Z,1024.82
2022-08-09T18:20:58.919Z,1024.84
2022-08-09T18:22:13.378Z,1024.84
2022-08-09T18:24:10.627Z,1024.89
2022-08-09T18:26:07.909Z,1024.87
2022-08-09T18:28:21.484Z,1024.88
2022-08-09T18:30:42.421Z,1024.91
2022-08-09T18:32:07.892Z,1024.91
2022-08-09T18:34:07.920Z,1024.96
2022-08-09T18:36:07.962Z,1024.94
2022-08-09T18:38:07.931Z,1024.94
2022-08-09T18:40:07.969Z,1025.00
2022-08-09T18:42:08.963Z,1025.00
2022-08-09T18:44:13.197Z,1025.03
2022-08-09T18:46:47.206Z,1025.03
2022-08-09T18:48:07.926Z,1025.03
2022-08-09T18:50:08.911Z,1025.03
2022-08-09T18:52:07.981Z,1025.08
2022-08-09T18:54:16.430Z,1025.12
2022-08-09T18:56:07.938Z,1025.18
2022-08-09T18:58:07.909Z,1025.21
2022-08-09T19:00:07.940Z,1025.21
2022-08-09T19:02:08.070Z,1025.26
2022-08-09T19:04:08.344Z,1025.28
2022-08-09T19:06:14.530Z,1025.33
2022-08-09T19:08:10.680Z,1025.36
2022-08-09T19:10:13.799Z,1025.36
2022-08-09T19:12:07.937Z,1025.38
2022-08-09T19:14:07.926Z,1025.36
2022-08-09T19:16:09.335Z,1025.39
2022-08-09T19:18:17.095Z,1025.39
2022-08-09T19:20:07.933Z,1025.39
2022-08-09T19:22:07.991Z,1025.40
2022-08-09T19:24:32.988Z,1025.45
2022-08-09T19:26:08.034Z,1025.45
2022-08-09T19:28:08.005Z,1025.45
2022-08-09T19:30:22.199Z,1025.49
2022-08-09T19:32:08.057Z,1025.51
2022-08-09T19:34:08.044Z,1025.51
2022-08-09T19:36:11.766Z,1025.50
2022-08-09T19:38:08.029Z,1025.50
2022-08-09T19:40:08.051Z,1025.51
2022-08-09T19:42:08.028Z,1025.54
2022-08-09T19:44:07.981Z,1025.54
2022-08-09T19:46:07.972Z,1025.54
2022-08-09T19:48:10.613Z,1025.59
2022-08-09T19:50:50.520Z,1025.56
2022-08-09T19:52:08.076Z,1025.61
2022-08-09T19:54:07.966Z,1025.63
2022-08-09T19:56:07.963Z,1025.63
2022-08-09T19:58:16.546Z,1025.62
2022-08-09T20:00:08.013Z,1025.62
2022-08-09T20:02:17.177Z,1025.68
2022-08-09T20:04:22.178Z,1025.69
2022-08-09T20:06:22.386Z,1025.69
2022-08-09T20:08:08.018Z,1025.69
2022-08-09T20:10:17.824Z,1025.57
2022-08-09T20:12:07.973Z,1025.61
2022-08-09T20:14:08.073Z,1025.61
2022-08-09T20:16:34.296Z,1025.62
2022-08-09T20:18:08.414Z,1025.66
2022-08-09T20:20:37.985Z,1025.64
2022-08-09T20:22:38.299Z,1025.64
2022-08-09T20:24:40.854Z,1025.66
2022-08-09T20:26:38.030Z,1025.61
2022-08-09T20:28:47.646Z,1025.61
2022-08-09T20:30:38.041Z,1025.64
2022-08-09T20:32:38.138Z,1025.63
2022-08-09T20:34:38.098Z,1025.63
2022-08-09T20:36:38.007Z,1025.65
2022-08-09T20:39:02.628Z,1025.65
2022-08-09T20:40:38.059Z,1025.67
2022-08-09T20:42:38.242Z,1025.68
2022-08-09T20:44:38.088Z,1025.66
2022-08-09T20:46:44.297Z,1025.66
2022-08-09T20:48:38.127Z,1025.66
2022-08-09T20:50:48.145Z,1025.65
2022-08-09T20:52:38.096Z,1025.66
2022-08-09T20:54:38.053Z,1025.67
2022-08-09T20:56:38.050Z,1025.67
2022-08-09T20:58:38.292Z,1025.64
2022-08-09T21:00:38.097Z,1025.66
2022-08-09T21:02:38.243Z,1025.65
2022-08-09T21:05:57.087Z,1025.68
2022-08-09T21:06:38.125Z,1025.68
2022-08-09T21:08:38.032Z,1025.71
2022-08-09T21:10:38.060Z,1025.72
2022-08-09T21:12:38.049Z,1025.72
2022-08-09T21:14:40.559Z,1025.72
2022-08-09T21:16:38.119Z,1025.72
2022-08-09T21:20:05.202Z,1025.77
2022-08-09T21:20:38.469Z,1025.76
2022-08-09T21:22:39.492Z,1025.76
2022-08-09T21:24:38.139Z,1025.76
2022-08-09T21:26:38.195Z,1025.85
2022-08-09T21:28:38.075Z,1025.85
2022-08-09T21:30:40.350Z,1025.85
2022-08-09T21:32:38.065Z,1025.85
2022-08-09T21:34:38.057Z,1025.85
2022-08-09T21:36:38.161Z,1025.92
2022-08-09T21:38:38.066Z,1025.93
2022-08-09T21:40:38.203Z,1025.89
2022-08-09T21:42:38.053Z,1025.87
2022-08-09T21:44:38.088Z,1025.87
2022-08-09T21:46:38.132Z,1025.90
2022-08-09T21:48:38.065Z,1025.91
2022-08-09T21:50:39.207Z,1025.91
2022-08-09T21:52:38.180Z,1025.91
2022-08-09T21:54:38.061Z,1025.93
2022-08-09T21:56:44.862Z,1025.92
2022-08-09T21:58:38.069Z,1025.97
2022-08-09T22:00:38.062Z,1025.97
2022-08-09T22:02:40.083Z,1025.97
2022-08-09T22:04:56.783Z,1025.95
2022-08-09T22:06:38.137Z,1025.93
2022-08-09T22:08:38.187Z,1025.93
2022-08-09T22:11:49.108Z,1025.93
2022-08-09T22:12:38.855Z,1025.93
2022-08-09T22:14:38.075Z,1025.85
2022-08-09T22:16:38.094Z,1025.80
2022-08-09T22:18:38.094Z,1025.80
2022-08-09T22:21:09.675Z,1025.80
2022-08-09T22:23:10.481Z,1025.80
2022-08-09T22:26:04.303Z,1025.80
2022-08-09T22:27:08.087Z,1025.85
2022-08-09T22:29:09.542Z,1025.86
2022-08-09T22:31:08.105Z,1025.86
2022-08-09T22:33:09.624Z,1025.83
2022-08-09T22:36:01.134Z,1025.82
2022-08-09T22:37:08.100Z,1025.81
2022-08-09T22:39:08.202Z,1025.81
2022-08-09T22:41:08.171Z,1025.81
2022-08-09T22:43:16.013Z,1025.87
2022-08-09T22:48:11.135Z,1025.80
2022-08-09T22:48:13.808Z,1025.91
2022-08-09T22:49:10.415Z,1025.80
2022-08-09T22:51:10.979Z,1025.80
2022-08-09T22:53:08.115Z,1025.85
2022-08-09T22:55:08.140Z,1025.90
2022-08-09T22:57:08.134Z,1025.94
2022-08-09T22:59:57.637Z,1025.94
2022-08-09T23:01:08.252Z,1025.80
2022-08-09T23:03:12.789Z,1025.85
2022-08-09T23:05:08.207Z,1025.92
2022-08-09T23:07:11.234Z,1025.86
2022-08-09T23:09:08.208Z,1025.86
2022-08-09T23:11:08.222Z,1025.88
2022-08-09T23:13:12.956Z,1025.85
2022-08-09T23:17:08.187Z,1025.84
2022-08-09T23:19:08.137Z,1025.87
2022-08-09T23:25:16.434Z,1025.74
2022-08-09T23:27:16.401Z,1025.74
2022-08-09T23:29:16.413Z,1025.74
2022-08-09T23:31:16.421Z,1025.74
2022-08-09T23:33:16.446Z,1025.69
2022-08-09T23:35:16.416Z,1025.64
2022-08-09T23:37:20.523Z,1025.64
2022-08-09T23:39:16.431Z,1025.59
2022-08-09T23:41:27.930Z,1025.58
2022-08-09T23:43:16.389Z,1025.58
2022-08-09T23:45:38.245Z,1025.55
2022-08-09T23:47:16.398Z,1025.55
2022-08-09T23:49:16.404Z,1025.57
2022-08-09T23:51:16.425Z,1025.52
2022-08-09T23:53:16.505Z,1025.58
2022-08-09T23:55:17.842Z,1025.58
2022-08-09T23:57:16.414Z,1025.60
2022-08-09T23:59:16.405Z,1025.57
